KTOL/TOL METAR and TAF weather

Enter ICAO airport designator
Station Type Date Time Source
KTOL METAR 2021/05/15 00:52 UTC NOAA

KTOL 150052Z 16003KT 10SM CLR 16/M02 A3023 RMK AO2 SLP238 T01561017


Station Type Date Time Source
KTOL Decoded METAR 2021/05/15 00:52 UTC NOAA

TOLEDO EXPRESS AIRPORT, OH, United States (KTOL) 41-35N 083-48W 210M
May 14, 2021 - 08:52 PM EDT / 2021.05.15 0052 UTC
Wind: from the SSE (160 degrees) at 3 MPH (3 KT):0
Visibility: 10 mile(s):0
Sky conditions: clear
Temperature: 60.1 F (15.6 C)
Dew Point: 28.9 F (-1.7 C)
Relative Humidity: 30%
Pressure (altimeter): 30.23 in. Hg (1023 hPa)
ob: KTOL 150052Z 16003KT 10SM CLR 16/M02 A3023 RMK AO2 SLP238 T01561017
cycle: 1

Station Type Date Time Source
KTOL TAF 2021/05/14 18:30 UTC NOAA

TAF KTOL 141728Z 1418/1518 29006KT P6SM FEW090
FM150000 VRB03KT P6SM SCT180

Example: see airport list